Time;durP1;ratioP1;P1;durP2;ratioP2;P2;SDS_P1;SDS_P2;PMS_P1;PMS_P2;Temp;Humidity;BMP_temperature;BMP_pressure;BME280_temperature;BME280_humidity;BME280_pressure;Samples;Min_cycle;Max_cycle;Signal;HPM_P1;HPM_P2
2023/12/15 00:00:24;;;;;;;7.80;4.20;;;;;;;;;;5029069;28;20049;-81
2023/12/15 00:02:49;;;;;;;12.02;4.72;;;;;;;;;;5014573;28;20251;-80
2023/12/15 00:05:15;;;;;;;7.93;4.68;;;;;;;;;;5014575;28;20030;-81
2023/12/15 00:07:40;;;;;;;8.35;4.57;;;;;;;;;;5014690;28;20025;-80
2023/12/15 00:10:06;;;;;;;11.23;4.78;;;;;;;;;;5013878;28;20044;-82
2023/12/15 00:12:31;;;;;;;8.02;4.43;;;;;;;;;;5013884;28;20078;-80
2023/12/15 00:14:56;;;;;;;10.80;4.93;;;;;;;;;;5014911;28;20028;-81
2023/12/15 00:17:22;;;;;;;9.70;4.60;;;;;;;;;;5014982;28;20299;-81
2023/12/15 00:19:47;;;;;;;10.73;4.72;;;;;;;;;;5013694;28;20030;-81
2023/12/15 00:22:12;;;;;;;7.77;4.60;;;;;;;;;;5014829;28;20416;-80
2023/12/15 00:24:37;;;;;;;8.27;4.68;;;;;;;;;;5014745;28;20719;-80
2023/12/15 00:27:03;;;;;;;7.17;3.93;;;;;;;;;;5014437;28;20400;-79
2023/12/15 00:29:28;;;;;;;8.52;4.45;;;;;;;;;;5019289;28;20243;-79
2023/12/15 00:31:53;;;;;;;8.43;4.57;;;;;;;;;;5038164;28;20024;-80
2023/12/15 00:34:18;;;;;;;9.02;4.50;;;;;;;;;;5052931;28;20033;-80
2023/12/15 00:36:44;;;;;;;8.60;4.50;;;;;;;;;;5027873;28;20026;-79
2023/12/15 00:39:09;;;;;;;8.88;4.97;;;;;;;;;;5014704;28;20083;-80
2023/12/15 00:41:34;;;;;;;7.50;4.32;;;;;;;;;;5016185;28;20030;-81
2023/12/15 00:44:02;;;;;;;8.98;4.53;;;;;;;;;;5017573;28;20041;-80
2023/12/15 00:46:27;;;;;;;8.02;4.55;;;;;;;;;;5017949;28;20034;-81
2023/12/15 00:48:52;;;;;;;8.48;4.68;;;;;;;;;;5018725;28;20496;-80
2023/12/15 00:51:18;;;;;;;7.93;4.20;;;;;;;;;;5017496;28;20374;-80
2023/12/15 00:53:43;;;;;;;9.45;4.07;;;;;;;;;;5018483;28;20105;-80
2023/12/15 00:56:09;;;;;;;6.60;3.90;;;;;;;;;;5018542;28;20021;-80
2023/12/15 00:58:34;;;;;;;7.25;4.03;;;;;;;;;;5017063;28;20276;-79
2023/12/15 01:00:59;;;;;;;6.43;3.67;;;;;;;;;;5018069;28;20041;-79
2023/12/15 01:03:24;;;;;;;8.67;4.40;;;;;;;;;;5018449;28;20037;-79
2023/12/15 01:05:50;;;;;;;8.57;4.20;;;;;;;;;;5018324;28;20255;-79
2023/12/15 01:08:16;;;;;;;7.80;4.65;;;;;;;;;;5016777;28;20351;-79
2023/12/15 01:10:41;;;;;;;7.20;4.20;;;;;;;;;;5018741;28;20025;-80
2023/12/15 01:13:06;;;;;;;15.35;4.90;;;;;;;;;;5019115;28;20071;-79
2023/12/15 01:15:34;;;;;;;9.43;4.93;;;;;;;;;;5033068;28;20026;-79
2023/12/15 01:17:59;;;;;;;11.63;4.75;;;;;;;;;;5018285;28;20275;-80
2023/12/15 01:20:24;;;;;;;10.80;4.85;;;;;;;;;;5017791;28;20026;-81
2023/12/15 01:22:50;;;;;;;10.18;4.60;;;;;;;;;;5017829;28;20033;-79
2023/12/15 01:25:15;;;;;;;8.83;4.73;;;;;;;;;;5018085;28;20029;-79
2023/12/15 01:27:40;;;;;;;10.53;5.23;;;;;;;;;;5018263;28;20248;-79
2023/12/15 01:30:06;;;;;;;7.40;4.20;;;;;;;;;;5018112;28;20260;-80
2023/12/15 01:32:31;;;;;;;7.82;4.28;;;;;;;;;;5018038;28;20397;-80
2023/12/15 01:34:57;;;;;;;9.30;4.60;;;;;;;;;;5017924;28;20022;-79
2023/12/15 01:37:22;;;;;;;9.40;4.82;;;;;;;;;;5017408;28;20251;-80
2023/12/15 01:39:47;;;;;;;8.95;4.63;;;;;;;;;;5017365;28;20021;-80
2023/12/15 01:42:12;;;;;;;9.93;4.65;;;;;;;;;;5032654;28;20079;-79
2023/12/15 01:44:39;;;;;;;6.57;3.53;;;;;;;;;;5018879;28;20416;-78
2023/12/15 01:47:04;;;;;;;8.05;3.90;;;;;;;;;;5018590;28;20037;-79
2023/12/15 01:49:30;;;;;;;7.25;3.70;;;;;;;;;;5018524;28;20037;-80
2023/12/15 01:51:55;;;;;;;6.60;3.90;;;;;;;;;;5017612;28;20057;-80
2023/12/15 01:54:20;;;;;;;6.53;3.60;;;;;;;;;;5018584;28;20113;-80
2023/12/15 01:56:46;;;;;;;7.60;3.97;;;;;;;;;;5018003;28;20084;-80
2023/12/15 01:59:11;;;;;;;6.78;3.60;;;;;;;;;;5018045;28;20029;-80
2023/12/15 02:01:36;;;;;;;6.07;3.13;;;;;;;;;;5017018;28;20033;-80
2023/12/15 02:04:01;;;;;;;5.40;2.97;;;;;;;;;;5018016;28;20022;-80
2023/12/15 02:06:27;;;;;;;4.05;2.60;;;;;;;;;;5017771;28;20259;-80
2023/12/15 02:08:52;;;;;;;4.17;2.67;;;;;;;;;;5032207;28;20026;-79
2023/12/15 02:11:18;;;;;;;4.55;2.97;;;;;;;;;;5032347;28;20262;-80
2023/12/15 02:13:43;;;;;;;3.67;2.72;;;;;;;;;;5017806;28;20460;-79
2023/12/15 02:16:08;;;;;;;3.70;2.08;;;;;;;;;;5017407;28;20030;-80
2023/12/15 02:18:33;;;;;;;3.45;2.55;;;;;;;;;;5017888;28;20021;-79
2023/12/15 02:20:58;;;;;;;5.05;2.53;;;;;;;;;;5032104;28;20025;-79
2023/12/15 02:23:24;;;;;;;4.93;3.17;;;;;;;;;;5015422;28;20392;-80
2023/12/15 02:25:49;;;;;;;4.53;2.83;;;;;;;;;;5015828;28;20030;-80
2023/12/15 02:28:14;;;;;;;4.60;2.70;;;;;;;;;;5017118;28;20259;-80
2023/12/15 02:30:39;;;;;;;4.30;2.00;;;;;;;;;;5017280;28;20045;-80
2023/12/15 02:33:05;;;;;;;4.40;2.78;;;;;;;;;;5017854;28;20018;-79
2023/12/15 02:35:30;;;;;;;5.10;2.90;;;;;;;;;;5017722;28;20030;-80
2023/12/15 02:37:55;;;;;;;4.93;2.92;;;;;;;;;;5016555;28;20022;-80
2023/12/15 02:40:20;;;;;;;5.28;3.55;;;;;;;;;;5015516;28;20028;-80
2023/12/15 02:42:46;;;;;;;6.05;3.95;;;;;;;;;;5016788;28;20529;-80
2023/12/15 02:45:11;;;;;;;5.93;3.67;;;;;;;;;;5016111;28;20061;-79
2023/12/15 02:47:36;;;;;;;8.52;4.20;;;;;;;;;;5014565;28;20030;-80
2023/12/15 02:50:01;;;;;;;6.40;3.80;;;;;;;;;;5015624;28;20052;-79
2023/12/15 02:52:27;;;;;;;6.47;4.18;;;;;;;;;;5014217;28;20465;-80
2023/12/15 02:54:52;;;;;;;5.78;3.55;;;;;;;;;;5014976;28;20477;-80
2023/12/15 02:57:17;;;;;;;7.20;4.30;;;;;;;;;;5015447;28;20041;-79
2023/12/15 02:59:42;;;;;;;8.40;4.50;;;;;;;;;;5015344;28;20294;-80
2023/12/15 03:02:08;;;;;;;7.97;4.05;;;;;;;;;;5015173;28;20247;-81
2023/12/15 03:04:33;;;;;;;6.30;3.47;;;;;;;;;;5014723;28;20500;-80
2023/12/15 03:06:58;;;;;;;7.80;3.83;;;;;;;;;;5015760;28;20025;-80
2023/12/15 03:09:23;;;;;;;6.63;4.38;;;;;;;;;;5015065;28;20777;-81
2023/12/15 03:11:49;;;;;;;7.07;4.28;;;;;;;;;;5015211;28;20306;-79
2023/12/15 03:14:14;;;;;;;8.77;4.43;;;;;;;;;;5014366;28;20033;-79
2023/12/15 03:16:39;;;;;;;4.95;3.05;;;;;;;;;;5014962;28;20045;-81
2023/12/15 03:19:04;;;;;;;9.45;5.10;;;;;;;;;;5029685;28;20041;-80
2023/12/15 03:21:30;;;;;;;6.53;3.70;;;;;;;;;;5030104;28;20128;-79
2023/12/15 03:23:55;;;;;;;7.60;4.80;;;;;;;;;;5015166;28;20307;-80
2023/12/15 03:26:20;;;;;;;9.23;4.80;;;;;;;;;;5013211;28;20267;-80
2023/12/15 03:28:46;;;;;;;9.98;5.18;;;;;;;;;;5014537;28;20022;-81
2023/12/15 03:31:11;;;;;;;7.73;4.50;;;;;;;;;;5014895;28;20061;-81
2023/12/15 03:33:36;;;;;;;9.80;5.37;;;;;;;;;;5015412;28;20263;-79
2023/12/15 03:36:05;;;;;;;10.88;5.57;;;;;;;;;;5015756;28;20263;-81
2023/12/15 03:38:32;;;;;;;11.82;5.63;;;;;;;;;;5015797;28;20029;-80
2023/12/15 03:40:57;;;;;;;9.32;4.78;;;;;;;;;;5032488;28;20026;-81
2023/12/15 03:43:23;;;;;;;5.33;3.20;;;;;;;;;;5018236;28;20053;-79
2023/12/15 03:45:48;;;;;;;10.32;5.35;;;;;;;;;;4982010;28;1003086;-79
2023/12/15 03:48:13;;;;;;;12.02;6.47;;;;;;;;;;5016313;28;20541;-80
2023/12/15 03:50:39;;;;;;;13.95;6.53;;;;;;;;;;5031941;28;20088;-79
2023/12/15 03:53:04;;;;;;;14.40;7.15;;;;;;;;;;5018401;28;20458;-80
2023/12/15 03:55:29;;;;;;;12.02;5.63;;;;;;;;;;5016130;28;20041;-78
2023/12/15 03:57:54;;;;;;;14.10;6.20;;;;;;;;;;5016344;28;20028;-80
2023/12/15 04:00:20;;;;;;;12.45;5.20;;;;;;;;;;5015154;28;20294;-79
2023/12/15 04:02:48;;;;;;;15.55;6.82;;;;;;;;;;5015122;28;20093;-80
2023/12/15 04:05:14;;;;;;;14.73;7.03;;;;;;;;;;5015367;28;20037;-79
2023/12/15 04:07:39;;;;;;;20.70;7.25;;;;;;;;;;5014646;28;20125;-79
2023/12/15 04:10:05;;;;;;;15.25;6.80;;;;;;;;;;5030092;28;20053;-80
2023/12/15 04:12:30;;;;;;;13.63;6.72;;;;;;;;;;5025832;28;20053;-78
2023/12/15 04:14:55;;;;;;;14.90;7.60;;;;;;;;;;5036161;28;20081;-77
2023/12/15 04:17:21;;;;;;;12.68;6.43;;;;;;;;;;5055506;28;20078;-77
2023/12/15 04:19:46;;;;;;;19.40;9.00;;;;;;;;;;5041026;28;20061;-79
2023/12/15 04:22:11;;;;;;;14.73;6.55;;;;;;;;;;5021944;28;20048;-80
2023/12/15 04:24:37;;;;;;;13.63;6.63;;;;;;;;;;5021154;28;20057;-79
2023/12/15 04:27:02;;;;;;;16.60;7.97;;;;;;;;;;5021876;28;20037;-80
2023/12/15 04:29:27;;;;;;;17.27;7.93;;;;;;;;;;5019591;28;20259;-80
2023/12/15 04:31:52;;;;;;;15.80;8.07;;;;;;;;;;5019236;28;20041;-79
2023/12/15 04:34:17;;;;;;;15.95;8.43;;;;;;;;;;5019516;28;20267;-79
2023/12/15 04:36:43;;;;;;;13.80;7.20;;;;;;;;;;5020446;28;20022;-79
2023/12/15 04:39:08;;;;;;;12.48;6.68;;;;;;;;;;5019542;28;20025;-80
2023/12/15 04:41:34;;;;;;;15.38;7.78;;;;;;;;;;5034688;28;20029;-80
2023/12/15 04:43:59;;;;;;;12.45;7.03;;;;;;;;;;5019709;28;20069;-79
2023/12/15 04:46:26;;;;;;;12.95;7.50;;;;;;;;;;5019353;28;20041;-79
2023/12/15 04:48:52;;;;;;;10.50;5.18;;;;;;;;;;5018071;28;20022;-78
2023/12/15 04:51:18;;;;;;;14.77;6.63;;;;;;;;;;5019016;28;20037;-80
2023/12/15 04:53:44;;;;;;;16.00;7.00;;;;;;;;;;5018287;28;20030;-80
2023/12/15 04:56:10;;;;;;;10.55;6.45;;;;;;;;;;5017850;28;20758;-81
2023/12/15 04:58:38;;;;;;;12.20;6.55;;;;;;;;;;5033904;28;20026;-80
2023/12/15 05:01:04;;;;;;;9.82;6.07;;;;;;;;;;5019853;28;20029;-80
2023/12/15 05:03:31;;;;;;;11.70;6.57;;;;;;;;;;5018558;28;20485;-79
2023/12/15 05:05:57;;;;;;;12.75;6.93;;;;;;;;;;5018873;28;20044;-80
2023/12/15 05:08:22;;;;;;;13.38;6.25;;;;;;;;;;5019079;28;20022;-79
2023/12/15 05:10:47;;;;;;;12.30;6.25;;;;;;;;;;5033595;28;20108;-79
2023/12/15 05:13:12;;;;;;;11.35;6.25;;;;;;;;;;5017338;28;20025;-80
2023/12/15 05:15:38;;;;;;;10.18;5.68;;;;;;;;;;5019272;28;20029;-80
2023/12/15 05:18:03;;;;;;;14.23;6.22;;;;;;;;;;5019288;28;20049;-80
2023/12/15 05:20:29;;;;;;;12.82;6.85;;;;;;;;;;5018220;28;20025;-80
2023/12/15 05:22:54;;;;;;;13.02;7.10;;;;;;;;;;5016694;28;20026;-80
2023/12/15 05:25:19;;;;;;;10.50;5.93;;;;;;;;;;5017922;28;20049;-79
2023/12/15 05:27:45;;;;;;;11.68;6.75;;;;;;;;;;5017884;28;20021;-79
2023/12/15 05:30:11;;;;;;;10.98;6.78;;;;;;;;;;5020438;28;20060;-79
2023/12/15 05:32:37;;;;;;;9.93;6.05;;;;;;;;;;5018449;28;20374;-80
2023/12/15 05:35:02;;;;;;;10.50;6.45;;;;;;;;;;5020571;28;20057;-78
2023/12/15 05:37:28;;;;;;;14.30;7.00;;;;;;;;;;5019404;28;20109;-81
2023/12/15 05:39:53;;;;;;;11.90;6.40;;;;;;;;;;5019087;28;20045;-79
2023/12/15 05:42:18;;;;;;;10.13;5.80;;;;;;;;;;5020246;28;20026;-80
2023/12/15 05:44:43;;;;;;;12.53;6.33;;;;;;;;;;5034530;28;20267;-80
2023/12/15 05:47:09;;;;;;;11.43;5.55;;;;;;;;;;5019242;28;20267;-80
2023/12/15 05:49:38;;;;;;;12.57;6.77;;;;;;;;;;5017364;28;20500;-80
2023/12/15 05:52:04;;;;;;;14.65;6.85;;;;;;;;;;5019516;28;20255;-80
2023/12/15 05:54:29;;;;;;;10.43;6.28;;;;;;;;;;5019971;28;20072;-80
2023/12/15 05:56:54;;;;;;;11.10;5.95;;;;;;;;;;5019369;28;20094;-79
2023/12/15 05:59:20;;;;;;;11.07;6.07;;;;;;;;;;5019456;28;20033;-80
2023/12/15 06:01:45;;;;;;;14.05;6.47;;;;;;;;;;5018096;28;20270;-79
2023/12/15 06:04:10;;;;;;;11.43;6.72;;;;;;;;;;5017211;28;20550;-79
2023/12/15 06:06:35;;;;;;;11.00;6.05;;;;;;;;;;5017861;28;20026;-78
2023/12/15 06:09:02;;;;;;;7.87;4.57;;;;;;;;;;5018176;28;20022;-77
2023/12/15 06:11:29;;;;;;;10.85;5.57;;;;;;;;;;5033812;28;20255;-82
2023/12/15 06:13:56;;;;;;;10.85;5.80;;;;;;;;;;5018912;28;20033;-80
2023/12/15 06:16:21;;;;;;;12.70;5.47;;;;;;;;;;5016264;28;20036;-81
2023/12/15 06:18:47;;;;;;;10.00;5.32;;;;;;;;;;5017816;28;20101;-81
2023/12/15 06:21:22;;;;;;;7.95;4.72;;;;;;;;;;5019306;28;20033;-79
2023/12/15 06:23:47;;;;;;;8.25;4.88;;;;;;;;;;5016227;28;20511;-80
2023/12/15 06:26:23;;;;;;;10.80;5.35;;;;;;;;;;5018303;28;20109;-79
2023/12/15 06:28:49;;;;;;;9.70;5.30;;;;;;;;;;5018396;28;20493;-79
2023/12/15 06:31:15;;;;;;;10.70;5.55;;;;;;;;;;5017306;28;20038;-81
2023/12/15 06:33:41;;;;;;;8.32;4.65;;;;;;;;;;5016925;28;20025;-80
2023/12/15 06:36:08;;;;;;;10.98;5.50;;;;;;;;;;5016210;28;20536;-81
2023/12/15 06:38:35;;;;;;;8.93;5.60;;;;;;;;;;5031042;28;20022;-81
2023/12/15 06:41:01;;;;;;;11.63;5.80;;;;;;;;;;5014742;28;20036;-81
2023/12/15 06:43:26;;;;;;;9.10;4.97;;;;;;;;;;5034763;28;20034;-83
2023/12/15 06:45:52;;;;;;;9.95;4.50;;;;;;;;;;5019110;28;20048;-79
2023/12/15 06:48:17;;;;;;;7.80;4.93;;;;;;;;;;5016632;28;20389;-79
2023/12/15 06:50:45;;;;;;;10.33;6.00;;;;;;;;;;5016713;28;20100;-79
2023/12/15 06:53:10;;;;;;;8.93;5.22;;;;;;;;;;5017284;28;20259;-79
2023/12/15 06:55:35;;;;;;;8.88;5.20;;;;;;;;;;5031969;28;20021;-79
2023/12/15 06:58:01;;;;;;;11.70;5.60;;;;;;;;;;5015938;28;20018;-79
2023/12/15 07:00:26;;;;;;;11.43;5.93;;;;;;;;;;5016162;28;20485;-79
2023/12/15 07:02:51;;;;;;;10.17;5.10;;;;;;;;;;5017334;28;20192;-83
2023/12/15 07:05:16;;;;;;;9.38;5.50;;;;;;;;;;5018456;28;20754;-79
2023/12/15 07:07:42;;;;;;;8.87;5.10;;;;;;;;;;5014355;28;20497;-80
2023/12/15 07:10:07;;;;;;;11.18;5.93;;;;;;;;;;5015777;28;20738;-80
2023/12/15 07:12:32;;;;;;;11.68;5.22;;;;;;;;;;5015314;28;20393;-80
2023/12/15 07:14:57;;;;;;;11.20;5.80;;;;;;;;;;5015174;28;20018;-80
2023/12/15 07:17:23;;;;;;;14.80;5.77;;;;;;;;;;5014627;28;20255;-80
2023/12/15 07:19:48;;;;;;;19.95;6.03;;;;;;;;;;5029515;28;20283;-79
2023/12/15 07:22:13;;;;;;;8.03;4.57;;;;;;;;;;5015488;28;20108;-82
2023/12/15 07:24:40;;;;;;;19.58;6.00;;;;;;;;;;5014333;28;20263;-81
2023/12/15 07:27:06;;;;;;;12.88;6.18;;;;;;;;;;5015973;28;20105;-78
2023/12/15 07:29:31;;;;;;;11.77;6.10;;;;;;;;;;5029633;28;20056;-80
2023/12/15 07:31:56;;;;;;;10.82;6.25;;;;;;;;;;5014260;28;20084;-79
2023/12/15 07:34:21;;;;;;;10.77;5.87;;;;;;;;;;5013340;28;20396;-78
2023/12/15 07:36:47;;;;;;;10.93;6.00;;;;;;;;;;5014826;28;20702;-79
2023/12/15 07:39:12;;;;;;;37.97;7.80;;;;;;;;;;5014457;28;20519;-80
2023/12/15 07:41:39;;;;;;;12.27;5.97;;;;;;;;;;5014415;28;20485;-79
2023/12/15 07:44:04;;;;;;;25.73;7.75;;;;;;;;;;5013469;28;20485;-79
2023/12/15 07:46:29;;;;;;;15.02;6.32;;;;;;;;;;5013115;28;20042;-79
2023/12/15 07:48:55;;;;;;;19.33;6.83;;;;;;;;;;5014611;28;20018;-78
2023/12/15 07:51:21;;;;;;;157.75;15.07;;;;;;;;;;5014955;28;20317;-79
2023/12/15 07:53:47;;;;;;;18.83;6.82;;;;;;;;;;5021595;28;20485;-79
2023/12/15 07:56:24;;;;;;;16.77;8.50;;;;;;;;;;5027145;28;20054;-80
2023/12/15 07:58:51;;;;;;;16.13;8.35;;;;;;;;;;5023781;28;20026;-80
2023/12/15 08:01:17;;;;;;;26.05;9.75;;;;;;;;;;5024746;28;20053;-74
2023/12/15 08:03:43;;;;;;;21.38;8.95;;;;;;;;;;5013839;28;20030;-75
2023/12/15 08:06:08;;;;;;;15.85;7.65;;;;;;;;;;5011452;28;20026;-74
2023/12/15 08:08:33;;;;;;;14.95;7.95;;;;;;;;;;5013423;28;20026;-74
2023/12/15 08:10:58;;;;;;;12.93;7.40;;;;;;;;;;5013394;28;20029;-75
2023/12/15 08:13:24;;;;;;;13.52;7.47;;;;;;;;;;5012969;28;20385;-75
2023/12/15 08:15:49;;;;;;;134.63;12.30;;;;;;;;;;5012989;28;20026;-74
2023/12/15 08:18:14;;;;;;;295.07;23.90;;;;;;;;;;5011858;28;20644;-72
2023/12/15 08:20:39;;;;;;;133.38;13.82;;;;;;;;;;5028010;28;20591;-74
2023/12/15 08:23:05;;;;;;;16.27;7.50;;;;;;;;;;5012852;28;20110;-74
2023/12/15 08:25:30;;;;;;;14.07;7.10;;;;;;;;;;5012663;28;20049;-74
2023/12/15 08:27:55;;;;;;;20.60;7.13;;;;;;;;;;5013230;28;20345;-74
2023/12/15 08:30:20;;;;;;;26.88;7.82;;;;;;;;;;5012782;28;20440;-74
2023/12/15 08:32:46;;;;;;;13.77;7.53;;;;;;;;;;5027824;28;20471;-73
2023/12/15 08:35:11;;;;;;;21.07;8.40;;;;;;;;;;5012751;28;20813;-74
2023/12/15 08:37:36;;;;;;;17.40;8.70;;;;;;;;;;5011411;28;20762;-74
2023/12/15 08:40:01;;;;;;;12.77;7.03;;;;;;;;;;5012757;28;20454;-74
2023/12/15 08:42:27;;;;;;;15.52;7.75;;;;;;;;;;5012493;28;20747;-74
2023/12/15 08:44:52;;;;;;;59.72;11.02;;;;;;;;;;5012065;28;20095;-74
2023/12/15 08:47:17;;;;;;;233.27;18.67;;;;;;;;;;5011152;28;20026;-74
2023/12/15 08:49:42;;;;;;;252.77;20.05;;;;;;;;;;5012556;28;20266;-74
2023/12/15 08:52:08;;;;;;;204.13;18.07;;;;;;;;;;5012662;28;20079;-74
2023/12/15 08:54:33;;;;;;;26.10;8.68;;;;;;;;;;5011393;28;20259;-74
2023/12/15 08:56:58;;;;;;;13.77;7.83;;;;;;;;;;5011094;28;20108;-74
2023/12/15 08:59:23;;;;;;;17.40;7.60;;;;;;;;;;5012790;28;20355;-74
2023/12/15 09:01:48;;;;;;;16.98;7.82;;;;;;;;;;5012427;28;20316;-74
2023/12/15 09:04:14;;;;;;;15.17;7.60;;;;;;;;;;5015792;28;20033;-74
2023/12/15 09:06:41;;;;;;;14.32;7.70;;;;;;;;;;5016213;28;20278;-73
2023/12/15 09:09:07;;;;;;;25.83;7.45;;;;;;;;;;5016070;28;20026;-75
2023/12/15 09:11:33;;;;;;;21.60;8.57;;;;;;;;;;5015825;28;20563;-75
2023/12/15 09:14:01;;;;;;;18.60;8.15;;;;;;;;;;5014837;28;20075;-75
2023/12/15 09:16:26;;;;;;;18.65;8.00;;;;;;;;;;5018633;28;20481;-75
2023/12/15 09:18:51;;;;;;;15.82;8.18;;;;;;;;;;5015563;28;20037;-74
2023/12/15 09:21:17;;;;;;;18.33;8.23;;;;;;;;;;5015664;28;20101;-74
2023/12/15 09:23:46;;;;;;;17.48;8.18;;;;;;;;;;5015707;28;20029;-75
2023/12/15 09:26:11;;;;;;;15.57;7.97;;;;;;;;;;5015474;28;20492;-75
2023/12/15 09:28:38;;;;;;;15.23;8.38;;;;;;;;;;5015428;28;20030;-75
2023/12/15 09:31:03;;;;;;;17.33;8.30;;;;;;;;;;5030685;28;20064;-74
2023/12/15 09:33:28;;;;;;;14.98;8.20;;;;;;;;;;5030931;28;20389;-75
2023/12/15 09:35:55;;;;;;;12.17;7.07;;;;;;;;;;5015271;28;20481;-75
2023/12/15 09:38:20;;;;;;;15.35;8.18;;;;;;;;;;5030481;28;20271;-75
2023/12/15 09:40:46;;;;;;;12.93;7.45;;;;;;;;;;5030575;28;20033;-75
2023/12/15 09:43:11;;;;;;;16.95;8.48;;;;;;;;;;5015399;28;20045;-75
2023/12/15 09:45:36;;;;;;;14.88;8.00;;;;;;;;;;5015083;28;20161;-75
2023/12/15 09:48:06;;;;;;;15.95;7.85;;;;;;;;;;5015210;28;20026;-75
2023/12/15 09:50:33;;;;;;;13.10;6.88;;;;;;;;;;5014701;28;20041;-77
2023/12/15 09:53:02;;;;;;;13.95;7.72;;;;;;;;;;5015483;28;20028;-74
2023/12/15 09:55:29;;;;;;;13.68;7.68;;;;;;;;;;5014754;28;20022;-75
2023/12/15 09:57:55;;;;;;;14.75;8.38;;;;;;;;;;5015365;28;20054;-75
2023/12/15 10:00:20;;;;;;;19.15;8.23;;;;;;;;;;5014774;28;20084;-75
2023/12/15 10:02:45;;;;;;;16.42;8.02;;;;;;;;;;5014805;28;20052;-75
2023/12/15 10:05:11;;;;;;;22.10;7.65;;;;;;;;;;5014946;28;20372;-75
2023/12/15 10:07:37;;;;;;;13.30;7.32;;;;;;;;;;5013412;28;20029;-75
2023/12/15 10:10:02;;;;;;;15.43;6.93;;;;;;;;;;5015001;28;20509;-75
2023/12/15 10:12:30;;;;;;;13.00;7.63;;;;;;;;;;5014762;28;20036;-75
2023/12/15 10:14:56;;;;;;;12.70;7.43;;;;;;;;;;5013502;28;20408;-74
2023/12/15 10:17:21;;;;;;;12.90;7.75;;;;;;;;;;5013325;28;20116;-75
2023/12/15 10:19:46;;;;;;;17.92;7.80;;;;;;;;;;5014582;28;20030;-75
2023/12/15 10:22:12;;;;;;;13.43;7.00;;;;;;;;;;5014574;28;20037;-75
2023/12/15 10:24:37;;;;;;;14.05;7.38;;;;;;;;;;5014641;28;20396;-75
2023/12/15 10:27:03;;;;;;;13.10;7.90;;;;;;;;;;5029620;28;20026;-75
2023/12/15 10:29:29;;;;;;;13.95;8.27;;;;;;;;;;5014612;28;20306;-74
2023/12/15 10:31:54;;;;;;;13.02;7.35;;;;;;;;;;5013052;28;20497;-75
2023/12/15 10:34:29;;;;;;;12.65;7.38;;;;;;;;;;5029431;28;20492;-75
2023/12/15 10:36:54;;;;;;;11.18;6.53;;;;;;;;;;5014200;28;20504;-74
2023/12/15 10:39:20;;;;;;;11.05;7.03;;;;;;;;;;5013875;28;20029;-74
2023/12/15 10:41:46;;;;;;;14.00;7.18;;;;;;;;;;5014144;28;20029;-74
2023/12/15 10:44:12;;;;;;;13.13;7.38;;;;;;;;;;5013928;28;20033;-75
2023/12/15 10:46:40;;;;;;;12.75;6.88;;;;;;;;;;5014079;28;20033;-75
2023/12/15 10:49:06;;;;;;;24.45;8.23;;;;;;;;;;5012773;28;20029;-75
2023/12/15 10:51:33;;;;;;;13.50;7.60;;;;;;;;;;5013846;28;20022;-75
2023/12/15 10:53:58;;;;;;;12.55;7.60;;;;;;;;;;5013737;28;20022;-75
2023/12/15 10:56:26;;;;;;;13.68;7.30;;;;;;;;;;5028920;28;20072;-74
2023/12/15 10:58:51;;;;;;;13.45;7.60;;;;;;;;;;5028751;28;20029;-75
2023/12/15 11:01:16;;;;;;;13.48;8.07;;;;;;;;;;5028710;28;20062;-74
2023/12/15 11:03:42;;;;;;;16.23;8.38;;;;;;;;;;5012892;28;20141;-74
2023/12/15 11:06:09;;;;;;;13.68;7.40;;;;;;;;;;5014174;28;20030;-75
2023/12/15 11:08:34;;;;;;;15.90;7.75;;;;;;;;;;5013509;28;20053;-74
2023/12/15 11:11:00;;;;;;;14.25;7.97;;;;;;;;;;5013526;28;20064;-74
2023/12/15 11:13:47;;;;;;;14.25;7.65;;;;;;;;;;5013475;28;20029;-74
2023/12/15 11:16:13;;;;;;;15.13;8.13;;;;;;;;;;5013584;28;20022;-75
2023/12/15 11:18:40;;;;;;;14.07;8.00;;;;;;;;;;5011955;28;20049;-74
2023/12/15 11:21:06;;;;;;;13.85;7.75;;;;;;;;;;5013790;28;20017;-74
2023/12/15 11:23:31;;;;;;;13.77;7.63;;;;;;;;;;5013637;28;20491;-74
2023/12/15 11:26:00;;;;;;;17.02;8.13;;;;;;;;;;5028712;28;20109;-76
2023/12/15 11:28:27;;;;;;;13.02;7.45;;;;;;;;;;5013439;28;20018;-74
2023/12/15 11:30:52;;;;;;;13.43;7.80;;;;;;;;;;5013673;28;20071;-76
2023/12/15 11:33:26;;;;;;;13.20;7.70;;;;;;;;;;5013588;28;20113;-76
2023/12/15 11:36:00;;;;;;;18.83;7.78;;;;;;;;;;5012212;28;20033;-76
2023/12/15 11:38:26;;;;;;;17.38;7.72;;;;;;;;;;5013392;28;20030;-74
2023/12/15 11:40:55;;;;;;;17.13;7.93;;;;;;;;;;5011895;28;20499;-77
2023/12/15 11:43:23;;;;;;;13.85;7.60;;;;;;;;;;5013630;28;20045;-75
2023/12/15 11:45:50;;;;;;;15.00;7.93;;;;;;;;;;5013319;28;20053;-76
2023/12/15 11:48:16;;;;;;;12.57;6.85;;;;;;;;;;5013346;28;20022;-76
2023/12/15 11:50:43;;;;;;;14.40;7.20;;;;;;;;;;5013516;28;20025;-76
2023/12/15 11:53:09;;;;;;;13.27;6.68;;;;;;;;;;5013487;28;20080;-76
2023/12/15 11:55:35;;;;;;;15.23;6.63;;;;;;;;;;5012934;28;20037;-76
2023/12/15 11:58:00;;;;;;;12.63;7.00;;;;;;;;;;5013139;28;20038;-75
2023/12/15 12:00:26;;;;;;;13.27;6.50;;;;;;;;;;5013298;28;20109;-76
2023/12/15 12:02:51;;;;;;;11.68;6.10;;;;;;;;;;5012902;28;20342;-76
2023/12/15 12:05:18;;;;;;;12.18;6.63;;;;;;;;;;5012862;28;20050;-76
2023/12/15 12:07:44;;;;;;;13.07;6.68;;;;;;;;;;5012586;28;20036;-76
2023/12/15 12:10:10;;;;;;;9.45;5.78;;;;;;;;;;5011617;28;20024;-76
2023/12/15 12:12:35;;;;;;;11.45;6.75;;;;;;;;;;5012747;28;20113;-76
2023/12/15 12:15:05;;;;;;;10.82;6.13;;;;;;;;;;5012494;28;20083;-76
2023/12/15 12:17:31;;;;;;;12.02;6.18;;;;;;;;;;5012587;28;20075;-75
2023/12/15 12:20:06;;;;;;;12.75;5.97;;;;;;;;;;5012583;28;20022;-75
2023/12/15 12:22:32;;;;;;;11.52;5.65;;;;;;;;;;5012984;28;20030;-75
2023/12/15 12:24:58;;;;;;;10.65;5.72;;;;;;;;;;5012647;28;20044;-75
2023/12/15 12:27:29;;;;;;;11.80;5.50;;;;;;;;;;5012530;28;20417;-75
2023/12/15 12:29:55;;;;;;;9.18;5.45;;;;;;;;;;5012951;28;20022;-74
2023/12/15 12:32:21;;;;;;;9.80;5.50;;;;;;;;;;5012937;28;20033;-75
2023/12/15 12:34:46;;;;;;;11.55;6.05;;;;;;;;;;5011258;28;20022;-74
2023/12/15 12:37:14;;;;;;;9.87;5.67;;;;;;;;;;5013562;28;20022;-74
2023/12/15 12:39:39;;;;;;;12.05;5.20;;;;;;;;;;5016948;28;20275;-79
2023/12/15 12:42:05;;;;;;;12.05;5.88;;;;;;;;;;5017180;28;20133;-74
2023/12/15 12:44:30;;;;;;;12.88;4.95;;;;;;;;;;5016552;28;20046;-75
2023/12/15 12:46:56;;;;;;;11.63;5.10;;;;;;;;;;5016185;28;20029;-75
2023/12/15 12:49:21;;;;;;;11.00;4.97;;;;;;;;;;5016774;28;20244;-74
2023/12/15 12:51:46;;;;;;;9.70;5.38;;;;;;;;;;5016174;28;20026;-76
2023/12/15 12:54:12;;;;;;;9.52;5.82;;;;;;;;;;5015909;28;20370;-74
2023/12/15 12:56:37;;;;;;;11.93;5.35;;;;;;;;;;5016148;28;20030;-74
2023/12/15 12:59:02;;;;;;;12.52;5.38;;;;;;;;;;5015726;28;20057;-75
2023/12/15 13:01:28;;;;;;;11.27;5.40;;;;;;;;;;5015956;28;20393;-76
2023/12/15 13:03:54;;;;;;;10.38;5.00;;;;;;;;;;5016538;28;20145;-76
2023/12/15 13:06:20;;;;;;;8.55;4.90;;;;;;;;;;5015978;28;20424;-75
2023/12/15 13:08:45;;;;;;;8.65;4.93;;;;;;;;;;5016208;28;20030;-75
2023/12/15 13:11:10;;;;;;;10.32;5.30;;;;;;;;;;5016190;28;20045;-76
2023/12/15 13:13:35;;;;;;;8.13;4.60;;;;;;;;;;5015665;28;20104;-76
2023/12/15 13:16:01;;;;;;;10.30;5.07;;;;;;;;;;5015534;28;20061;-76
2023/12/15 13:18:26;;;;;;;8.45;4.65;;;;;;;;;;5014114;28;20044;-74
2023/12/15 13:20:52;;;;;;;8.25;4.47;;;;;;;;;;5014237;28;20037;-75
2023/12/15 13:23:17;;;;;;;8.03;4.60;;;;;;;;;;5015565;28;20026;-76
2023/12/15 13:25:42;;;;;;;9.52;4.72;;;;;;;;;;5030958;28;20263;-77
2023/12/15 13:28:10;;;;;;;6.82;4.30;;;;;;;;;;5015713;28;20026;-78
2023/12/15 13:30:35;;;;;;;8.68;4.28;;;;;;;;;;5015605;28;20018;-78
2023/12/15 13:33:00;;;;;;;6.70;3.92;;;;;;;;;;5016071;28;20132;-77
2023/12/15 13:35:25;;;;;;;7.63;3.78;;;;;;;;;;5015905;28;20045;-78
2023/12/15 13:37:50;;;;;;;6.90;4.10;;;;;;;;;;5016998;28;20037;-77
2023/12/15 13:40:18;;;;;;;7.57;3.93;;;;;;;;;;5015996;28;20057;-78
2023/12/15 13:42:43;;;;;;;5.70;3.63;;;;;;;;;;5015082;28;20726;-75
2023/12/15 13:45:09;;;;;;;7.40;3.83;;;;;;;;;;5014645;28;20034;-77
2023/12/15 13:47:35;;;;;;;6.55;3.65;;;;;;;;;;5030296;28;20592;-77
2023/12/15 13:50:00;;;;;;;5.88;3.67;;;;;;;;;;5014897;28;20053;-76
2023/12/15 13:52:26;;;;;;;7.20;3.92;;;;;;;;;;5015221;28;20075;-77
2023/12/15 13:54:51;;;;;;;6.97;3.63;;;;;;;;;;5015081;28;20416;-78
2023/12/15 13:57:16;;;;;;;6.35;4.00;;;;;;;;;;5015003;28;20612;-76
2023/12/15 13:59:41;;;;;;;6.55;4.05;;;;;;;;;;5014856;28;20030;-77
2023/12/15 14:02:07;;;;;;;11.02;3.95;;;;;;;;;;5014930;28;20060;-77
2023/12/15 14:04:32;;;;;;;6.90;3.30;;;;;;;;;;5015003;28;20121;-77
2023/12/15 14:06:59;;;;;;;7.18;3.75;;;;;;;;;;5014745;28;20338;-77
2023/12/15 14:09:27;;;;;;;5.93;3.20;;;;;;;;;;5014703;28;20095;-77
2023/12/15 14:11:53;;;;;;;5.57;3.50;;;;;;;;;;5014549;28;20047;-76
2023/12/15 14:14:18;;;;;;;5.90;3.33;;;;;;;;;;5028793;28;20481;-77
2023/12/15 14:16:43;;;;;;;4.63;3.03;;;;;;;;;;5012066;28;20088;-77
2023/12/15 14:19:09;;;;;;;4.47;2.78;;;;;;;;;;5012256;28;20378;-75
2023/12/15 14:21:34;;;;;;;5.93;2.35;;;;;;;;;;5011507;28;20544;-76
2023/12/15 14:23:59;;;;;;;3.90;2.50;;;;;;;;;;5011511;28;20073;-76